首页
METAR-TAF:

METAR-TAF

机场 :

馬里伯爾愛德華·盧希揚機場

马里博尔, 斯洛文尼亚

纬度: 46-29N, 经度: 015-41E, 海拔: 264米

当前天气观测

该预报发布于10分钟前的13:30 UTC
风速4节,风向东南
温度 13°C
湿度 62%
气压 1018 hPa
能见度10公里或以上
1500米以下无云,无积雨云

METAR: LJMB 191330Z 14004KT CAVOK 13/06 Q1018

时间: 14:40 (13:40 UTC)

预报

该预报发布于2小时和40分钟前的11:00 UTC
预报有效从19日的 12点(UTC)到 20日的 12点(UTC)
风速5节,风向
能见度10公里或以上
1500米以下无云,无积雨云
短暂存在
从 19日的 12点(UTC)到 20日的 09点(UTC)
多云层高于4500英尺
成为
从 20日的 08点(UTC)到 20日的 10点(UTC)
散云层高于3500英尺
多云层高于6000英尺
几率 40% :
短暂存在
从 20日的 09点(UTC)到 20日的 12点(UTC)
风速10节,风向
多云层高于3500英尺
阴天层高于6000英尺
小雨

TAF: LJMB 191100Z 1912/2012 35005KT CAVOK TEMPO 1912/2009 BKN045 BECMG 2008/2010 SCT035 BKN060 PROB40 TEMPO 2009/2012 36010KT -RA BKN035 OVC060

超过4000个机场的气象观测和天气预报(METAR&TAF报告)。

可查询的气象台以黄色和红色小点在地图上表示。

将鼠标移到小点上方,可查看气象台名称。

然后点击查看天气观测和预报。

如需切换地图:点击带黑十字的绿色按钮放大地图;点击带横线的绿色按钮缩小地图;或者点击绿色箭头查看邻近地区的地图。


METAR-TAF: